createdAt,value
2023-02-20T00:00:41.512Z,7.111
2023-02-20T00:01:41.201Z,7.109
2023-02-20T00:02:40.879Z,7.095
2023-02-20T00:03:40.717Z,7.087
2023-02-20T00:04:41.486Z,7.069
2023-02-20T00:05:41.114Z,7.071
2023-02-20T00:06:42.475Z,7.061
2023-02-20T00:07:40.635Z,7.093
2023-02-20T00:08:41.424Z,7.066
2023-02-20T00:09:41.033Z,7.101
2023-02-20T00:10:40.874Z,7.130
2023-02-20T00:11:41.505Z,7.162
2023-02-20T00:12:41.148Z,7.152
2023-02-20T00:13:40.772Z,7.103
2023-02-20T00:14:41.344Z,7.103
2023-02-20T00:15:40.992Z,7.085
2023-02-20T00:16:40.771Z,7.101
2023-02-20T00:17:41.356Z,7.087
2023-02-20T00:18:41.012Z,7.053
2023-02-20T00:19:40.675Z,7.095
2023-02-20T00:20:41.589Z,7.053
2023-02-20T00:21:41.288Z,7.061
2023-02-20T00:22:40.875Z,7.074
2023-02-20T00:23:40.694Z,7.066
2023-02-20T00:24:41.264Z,7.063
2023-02-20T00:25:41.092Z,7.077
2023-02-20T00:26:40.733Z,7.103
2023-02-20T00:27:41.293Z,7.130
2023-02-20T00:28:40.917Z,7.141
2023-02-20T00:29:41.546Z,7.160
2023-02-20T00:30:41.245Z,7.178
2023-02-20T00:31:41.292Z,7.173
2023-02-20T00:32:41.084Z,7.130
2023-02-20T00:33:40.818Z,7.125
2023-02-20T00:34:41.405Z,7.135
2023-02-20T00:35:41.110Z,7.154
2023-02-20T00:36:40.797Z,7.181
2023-02-20T00:37:41.364Z,7.162
2023-02-20T00:38:41.135Z,7.218
2023-02-20T00:39:40.793Z,7.218
2023-02-20T00:40:41.134Z,7.213
2023-02-20T00:41:40.793Z,7.152
2023-02-20T00:42:41.464Z,7.176
2023-02-20T00:43:41.188Z,7.162
2023-02-20T00:44:40.776Z,7.149
2023-02-20T00:45:41.429Z,7.168
2023-02-20T00:46:41.269Z,7.189
2023-02-20T00:47:41.077Z,7.184
2023-02-20T00:48:40.730Z,7.216
2023-02-20T00:49:41.373Z,7.170
2023-02-20T00:50:41.608Z,7.173
2023-02-20T00:51:41.221Z,7.189
2023-02-20T00:52:40.885Z,7.194
2023-02-20T00:53:41.572Z,7.200
2023-02-20T00:54:41.224Z,7.226
2023-02-20T00:55:40.912Z,7.165
2023-02-20T00:56:41.572Z,7.165
2023-02-20T00:57:41.300Z,7.184
2023-02-20T00:58:40.908Z,7.202
2023-02-20T00:59:41.464Z,7.186
2023-02-20T01:00:41.139Z,7.181
2023-02-20T01:01:40.958Z,7.210
2023-02-20T01:02:40.832Z,7.192
2023-02-20T01:03:41.589Z,7.200
2023-02-20T01:04:41.251Z,7.229
2023-02-20T01:05:40.939Z,7.210
2023-02-20T01:06:41.580Z,7.242
2023-02-20T01:07:41.163Z,7.205
2023-02-20T01:08:40.805Z,7.200
2023-02-20T01:09:41.456Z,7.229
2023-02-20T01:10:41.093Z,7.205
2023-02-20T01:11:40.789Z,7.178
2023-02-20T01:12:41.457Z,7.189
2023-02-20T01:13:41.082Z,7.152
2023-02-20T01:14:40.677Z,7.114
2023-02-20T01:15:41.325Z,7.160
2023-02-20T01:16:41.237Z,7.170
2023-02-20T01:17:40.746Z,7.152
2023-02-20T01:18:41.329Z,7.133
2023-02-20T01:19:41.003Z,7.117
2023-02-20T01:20:41.677Z,7.117
2023-02-20T01:21:41.305Z,7.071
2023-02-20T01:22:41.091Z,7.063
2023-02-20T01:23:40.724Z,7.039
2023-02-20T01:24:41.472Z,6.999
2023-02-20T01:25:41.131Z,7.029
2023-02-20T01:26:40.871Z,6.986
2023-02-20T01:27:40.716Z,6.965
2023-02-20T01:28:41.400Z,7.013
2023-02-20T01:29:41.096Z,6.989
2023-02-20T01:30:41.037Z,6.938
2023-02-20T01:31:41.121Z,6.911
2023-02-20T01:32:41.256Z,6.922
2023-02-20T01:33:40.929Z,6.949
2023-02-20T01:34:40.845Z,6.949
2023-02-20T01:35:41.516Z,6.914
2023-02-20T01:36:41.300Z,6.925
2023-02-20T01:37:40.986Z,6.975
2023-02-20T01:38:41.799Z,6.941
2023-02-20T01:39:41.489Z,6.930
2023-02-20T01:40:41.273Z,6.962
2023-02-20T01:41:41.424Z,6.949
2023-02-20T01:42:41.037Z,6.951
2023-02-20T01:43:41.613Z,6.949
2023-02-20T01:44:41.253Z,6.967
2023-02-20T01:45:40.928Z,6.943
2023-02-20T01:46:41.637Z,6.884
2023-02-20T01:47:41.736Z,6.879
2023-02-20T01:48:41.444Z,6.933
2023-02-20T01:49:41.005Z,6.967
2023-02-20T01:50:41.654Z,6.986
2023-02-20T01:51:41.281Z,6.965
2023-02-20T01:52:40.968Z,6.927
2023-02-20T01:53:41.591Z,6.938
2023-02-20T01:54:41.265Z,6.922
2023-02-20T01:55:40.964Z,6.882
2023-02-20T01:56:41.654Z,6.839
2023-02-20T01:57:41.271Z,6.842
2023-02-20T01:58:41.014Z,6.850
2023-02-20T01:59:40.615Z,6.812
2023-02-20T02:00:41.443Z,6.775
2023-02-20T02:01:41.469Z,6.772
2023-02-20T02:02:41.339Z,6.700
2023-02-20T02:03:41.022Z,6.687
2023-02-20T02:04:40.633Z,6.609
2023-02-20T02:05:41.305Z,6.692
2023-02-20T02:06:41.018Z,6.612
2023-02-20T02:07:40.712Z,6.585
2023-02-20T02:08:41.337Z,6.607
2023-02-20T02:09:40.956Z,6.620
2023-02-20T02:10:41.726Z,6.516
2023-02-20T02:11:41.311Z,6.495
2023-02-20T02:12:40.845Z,6.420
2023-02-20T02:13:41.599Z,6.457
2023-02-20T02:14:41.201Z,6.415
2023-02-20T02:15:40.937Z,6.487
2023-02-20T02:16:41.665Z,6.465
2023-02-20T02:17:41.481Z,6.372
2023-02-20T02:18:41.162Z,6.332
2023-02-20T02:19:40.752Z,6.262
2023-02-20T02:20:41.412Z,6.321
2023-02-20T02:21:41.019Z,6.388
2023-02-20T02:22:40.747Z,6.321
2023-02-20T02:23:41.428Z,6.244
2023-02-20T02:24:41.081Z,6.230
2023-02-20T02:25:40.738Z,6.265
2023-02-20T02:26:41.469Z,6.190
2023-02-20T02:27:41.152Z,6.115
2023-02-20T02:28:40.770Z,6.169
2023-02-20T02:29:41.400Z,6.150
2023-02-20T02:30:41.268Z,6.180
2023-02-20T02:31:41.179Z,6.206
2023-02-20T02:32:40.967Z,6.254
2023-02-20T02:33:40.727Z,6.249
2023-02-20T02:34:41.319Z,6.254
2023-02-20T02:35:41.114Z,6.268
2023-02-20T02:36:41.617Z,6.289
2023-02-20T02:37:41.284Z,6.265
2023-02-20T02:38:40.953Z,6.257
2023-02-20T02:39:41.658Z,6.278
2023-02-20T02:40:41.304Z,6.316
2023-02-20T02:41:40.945Z,6.329
2023-02-20T02:42:41.593Z,6.310
2023-02-20T02:43:41.245Z,6.302
2023-02-20T02:44:40.896Z,6.310
2023-02-20T02:45:41.657Z,6.281
2023-02-20T02:46:41.459Z,6.292
2023-02-20T02:47:41.161Z,6.254
2023-02-20T02:48:40.804Z,6.281
2023-02-20T02:49:41.377Z,6.284
2023-02-20T02:50:41.018Z,6.286
2023-02-20T02:51:41.616Z,6.270
2023-02-20T02:52:41.380Z,6.292
2023-02-20T02:53:41.063Z,6.254
2023-02-20T02:54:40.680Z,6.217
2023-02-20T02:55:41.332Z,6.230
2023-02-20T02:56:40.947Z,6.236
2023-02-20T02:57:40.632Z,6.238
2023-02-20T02:58:41.346Z,6.230
2023-02-20T02:59:41.031Z,6.246
2023-02-20T03:00:40.920Z,6.198
2023-02-20T03:01:40.873Z,6.185
2023-02-20T03:02:41.691Z,6.172
2023-02-20T03:03:41.481Z,6.185
2023-02-20T03:04:41.329Z,6.230
2023-02-20T03:05:40.960Z,6.260
2023-02-20T03:06:41.669Z,6.233
2023-02-20T03:07:41.420Z,6.217
2023-02-20T03:08:41.034Z,6.233
2023-02-20T03:09:40.665Z,6.198
2023-02-20T03:10:41.376Z,6.196
2023-02-20T03:11:41.193Z,6.217
2023-02-20T03:12:40.896Z,6.217
2023-02-20T03:13:41.565Z,6.228
2023-02-20T03:14:41.282Z,6.292
2023-02-20T03:15:40.919Z,6.225
2023-02-20T03:16:41.565Z,6.246
2023-02-20T03:17:41.266Z,6.249
2023-02-20T03:18:40.968Z,6.246
2023-02-20T03:19:41.652Z,6.220
2023-02-20T03:20:41.488Z,6.236
2023-02-20T03:21:41.327Z,6.249
2023-02-20T03:22:41.111Z,6.241
2023-02-20T03:23:40.847Z,6.265
2023-02-20T03:24:41.600Z,6.262
2023-02-20T03:25:41.195Z,6.302
2023-02-20T03:26:40.831Z,6.292
2023-02-20T03:27:41.500Z,6.297
2023-02-20T03:28:41.237Z,6.286
2023-02-20T03:29:40.929Z,6.289
2023-02-20T03:30:41.754Z,6.260
2023-02-20T03:31:41.692Z,6.265
2023-02-20T03:32:41.465Z,6.196
2023-02-20T03:33:41.137Z,6.228
2023-02-20T03:34:40.800Z,6.190
2023-02-20T03:35:41.461Z,6.172
2023-02-20T03:36:41.108Z,6.198
2023-02-20T03:37:41.673Z,6.206
2023-02-20T03:38:41.351Z,6.241
2023-02-20T03:39:41.004Z,6.209
2023-02-20T03:40:40.749Z,6.225
2023-02-20T03:41:41.336Z,6.265
2023-02-20T03:42:41.078Z,6.310
2023-02-20T03:43:40.848Z,6.276
2023-02-20T03:44:41.466Z,6.337
2023-02-20T03:45:41.187Z,6.372
2023-02-20T03:46:41.008Z,6.345
2023-02-20T03:47:44.796Z,6.334
2023-02-20T03:48:41.535Z,6.334
2023-02-20T03:49:41.266Z,6.348
2023-02-20T03:50:40.920Z,6.345
2023-02-20T03:51:41.543Z,6.313
2023-02-20T03:52:41.213Z,6.340
2023-02-20T03:53:40.847Z,6.329
2023-02-20T03:54:41.464Z,6.372
2023-02-20T03:55:41.115Z,6.332
2023-02-20T03:56:40.877Z,6.321
2023-02-20T03:57:41.512Z,6.308
2023-02-20T03:58:41.172Z,6.337
2023-02-20T03:59:40.773Z,6.294
2023-02-20T04:00:41.454Z,6.348
2023-02-20T04:01:41.210Z,6.382
2023-02-20T04:02:40.969Z,6.385
2023-02-20T04:03:40.741Z,6.393
2023-02-20T04:04:41.432Z,6.460
2023-02-20T04:05:41.120Z,6.431
2023-02-20T04:06:40.789Z,6.420
2023-02-20T04:07:41.592Z,6.425
2023-02-20T04:08:41.096Z,6.388
2023-02-20T04:09:40.801Z,6.390
2023-02-20T04:10:41.498Z,6.356
2023-02-20T04:11:41.147Z,6.361
2023-02-20T04:12:40.877Z,6.350
2023-02-20T04:13:40.672Z,6.334
2023-02-20T04:14:41.299Z,6.244
2023-02-20T04:15:40.919Z,6.230
2023-02-20T04:16:44.234Z,6.252
2023-02-20T04:17:47.073Z,6.201
2023-02-20T04:19:40.779Z,6.075
2023-02-20T04:20:41.422Z,6.065
2023-02-20T04:21:41.053Z,6.110
2023-02-20T04:22:40.763Z,6.134
2023-02-20T04:23:41.475Z,6.099
2023-02-20T04:24:41.136Z,6.161
2023-02-20T04:25:40.852Z,6.222
2023-02-20T04:26:41.483Z,6.270
2023-02-20T04:27:41.153Z,6.254
2023-02-20T04:28:40.868Z,6.254
2023-02-20T04:29:41.713Z,6.332
2023-02-20T04:30:41.473Z,6.308
2023-02-20T04:31:41.425Z,6.308
2023-02-20T04:32:41.145Z,6.260
2023-02-20T04:33:41.025Z,6.297
2023-02-20T04:34:41.662Z,6.308
2023-02-20T04:35:41.364Z,6.332
2023-02-20T04:36:40.978Z,6.358
2023-02-20T04:37:41.654Z,6.350
2023-02-20T04:38:41.381Z,6.353
2023-02-20T04:39:41.052Z,6.374
2023-02-20T04:40:40.746Z,6.374
2023-02-20T04:41:41.780Z,6.345
2023-02-20T04:42:41.411Z,6.348
2023-02-20T04:43:41.109Z,6.388
2023-02-20T04:44:41.103Z,6.374
2023-02-20T04:45:40.896Z,6.393
2023-02-20T04:46:41.631Z,6.340
2023-02-20T04:47:41.372Z,6.393
2023-02-20T04:48:41.035Z,6.404
2023-02-20T04:49:41.468Z,6.407
2023-02-20T04:50:41.129Z,6.431
2023-02-20T04:51:41.409Z,6.420
2023-02-20T04:52:41.107Z,6.452
2023-02-20T04:53:40.692Z,6.473
2023-02-20T04:54:41.364Z,6.484
2023-02-20T04:55:41.081Z,6.492
2023-02-20T04:56:40.724Z,6.497
2023-02-20T04:57:41.372Z,6.511
2023-02-20T04:58:40.986Z,6.545
2023-02-20T04:59:40.869Z,6.572
2023-02-20T05:00:41.496Z,6.588
2023-02-20T05:01:41.210Z,6.585
2023-02-20T05:02:41.036Z,6.599
2023-02-20T05:03:40.704Z,6.585
2023-02-20T05:04:41.454Z,6.583
2023-02-20T05:05:41.160Z,6.559
2023-02-20T05:06:40.773Z,6.585
2023-02-20T05:07:41.482Z,6.607
2023-02-20T05:08:41.116Z,6.559
2023-02-20T05:09:40.794Z,6.609
2023-02-20T05:10:41.549Z,6.650
2023-02-20T05:11:41.159Z,6.650
2023-02-20T05:12:40.797Z,6.682
2023-02-20T05:13:41.395Z,6.644
2023-02-20T05:14:40.976Z,6.682
2023-02-20T05:15:41.626Z,6.716
2023-02-20T05:16:41.408Z,6.770
2023-02-20T05:17:41.039Z,6.746
2023-02-20T05:18:40.680Z,6.748
2023-02-20T05:19:41.287Z,6.775
2023-02-20T05:20:40.940Z,6.775
2023-02-20T05:21:41.520Z,6.778
2023-02-20T05:22:41.184Z,6.812
2023-02-20T05:23:40.804Z,6.794
2023-02-20T05:24:41.465Z,6.802
2023-02-20T05:25:41.283Z,6.751
2023-02-20T05:26:41.019Z,6.708
2023-02-20T05:27:41.647Z,6.746
2023-02-20T05:28:41.241Z,6.719
2023-02-20T05:29:40.961Z,6.732
2023-02-20T05:30:41.791Z,6.746
2023-02-20T05:31:41.236Z,6.762
2023-02-20T05:32:41.100Z,6.730
2023-02-20T05:33:40.876Z,6.724
2023-02-20T05:34:41.553Z,6.735
2023-02-20T05:35:41.304Z,6.732
2023-02-20T05:36:41.053Z,6.690
2023-02-20T05:37:40.672Z,6.682
2023-02-20T05:38:41.323Z,6.684
2023-02-20T05:39:40.796Z,6.716
2023-02-20T05:40:41.460Z,6.700
2023-02-20T05:41:41.143Z,6.751
2023-02-20T05:42:40.863Z,6.738
2023-02-20T05:43:41.487Z,6.740
2023-02-20T05:44:41.283Z,6.711
2023-02-20T05:45:40.991Z,6.698
2023-02-20T05:46:41.705Z,6.676
2023-02-20T05:47:41.536Z,6.660
2023-02-20T05:48:41.099Z,6.714
2023-02-20T05:49:40.740Z,6.652
2023-02-20T05:50:41.415Z,6.682
2023-02-20T05:51:41.070Z,6.676
2023-02-20T05:52:40.720Z,6.650
2023-02-20T05:53:41.284Z,6.623
2023-02-20T05:54:40.959Z,6.660
2023-02-20T05:55:41.633Z,6.615
2023-02-20T05:56:41.205Z,6.668
2023-02-20T05:57:41.509Z,6.623
2023-02-20T05:58:41.142Z,6.647
2023-02-20T05:59:40.819Z,6.604
2023-02-20T06:00:41.396Z,6.583
2023-02-20T06:01:41.052Z,6.596
2023-02-20T06:02:40.738Z,6.572
2023-02-20T06:03:41.376Z,6.548
2023-02-20T06:04:41.075Z,6.545
2023-02-20T06:05:40.917Z,6.569
2023-02-20T06:06:41.718Z,6.543
2023-02-20T06:07:41.436Z,6.559
2023-02-20T06:08:41.180Z,6.511
2023-02-20T06:09:40.826Z,6.524
2023-02-20T06:10:40.750Z,6.473
2023-02-20T06:11:41.364Z,6.447
2023-02-20T06:12:41.043Z,6.473
2023-02-20T06:13:40.764Z,6.457
2023-02-20T06:14:43.027Z,6.495
2023-02-20T06:15:40.750Z,6.471
2023-02-20T06:16:41.384Z,6.492
2023-02-20T06:17:41.518Z,6.452
2023-02-20T06:18:40.961Z,6.423
2023-02-20T06:19:40.792Z,6.407
2023-02-20T06:20:41.409Z,6.460
2023-02-20T06:21:41.172Z,6.447
2023-02-20T06:22:40.813Z,6.455
2023-02-20T06:23:41.412Z,6.425
2023-02-20T06:24:41.118Z,6.396
2023-02-20T06:25:40.761Z,6.436
2023-02-20T06:26:41.368Z,6.447
2023-02-20T06:27:41.023Z,6.447
2023-02-20T06:28:41.653Z,6.452
2023-02-20T06:29:41.325Z,6.444
2023-02-20T06:30:41.106Z,6.420
2023-02-20T06:31:41.787Z,6.425
2023-02-20T06:32:41.014Z,6.468
2023-02-20T06:33:40.697Z,6.473
2023-02-20T06:34:41.389Z,6.457
2023-02-20T06:35:41.085Z,6.460
2023-02-20T06:36:40.714Z,6.481
2023-02-20T06:37:41.389Z,6.473
2023-02-20T06:38:41.029Z,6.471
2023-02-20T06:39:40.717Z,6.455
2023-02-20T06:40:41.402Z,6.471
2023-02-20T06:41:41.019Z,6.484
2023-02-20T06:42:40.673Z,6.487
2023-02-20T06:43:41.365Z,6.500
2023-02-20T06:44:41.015Z,6.492
2023-02-20T06:45:40.755Z,6.511
2023-02-20T06:46:41.510Z,6.521
2023-02-20T06:47:41.567Z,6.505
2023-02-20T06:48:41.212Z,6.543
2023-02-20T06:49:40.881Z,6.524
2023-02-20T06:50:41.638Z,6.569
2023-02-20T06:51:41.354Z,6.559
2023-02-20T06:52:41.005Z,6.511
2023-02-20T06:53:40.734Z,6.527
2023-02-20T06:54:41.492Z,6.521
2023-02-20T06:55:41.231Z,6.577
2023-02-20T06:56:40.919Z,6.524
2023-02-20T06:57:40.700Z,6.543
2023-02-20T06:58:41.330Z,6.513
2023-02-20T06:59:40.964Z,6.513
2023-02-20T07:00:41.777Z,6.561
2023-02-20T07:01:41.733Z,6.532
2023-02-20T07:02:41.536Z,6.513
2023-02-20T07:03:41.176Z,6.527
2023-02-20T07:04:44.251Z,6.524
2023-02-20T07:05:40.884Z,6.559
2023-02-20T07:06:41.583Z,6.559
2023-02-20T07:07:41.413Z,6.553
2023-02-20T07:08:41.149Z,6.521
2023-02-20T07:09:41.604Z,6.604
2023-02-20T07:10:40.707Z,6.543
2023-02-20T07:11:41.352Z,6.537
2023-02-20T07:12:40.999Z,6.564
2023-02-20T07:13:41.632Z,6.543
2023-02-20T07:14:41.289Z,6.585
2023-02-20T07:15:41.519Z,6.551
2023-02-20T07:16:42.757Z,6.545
2023-02-20T07:17:41.471Z,6.527
2023-02-20T07:18:41.086Z,6.567
2023-02-20T07:19:40.752Z,6.556
2023-02-20T07:20:41.417Z,6.545
2023-02-20T07:21:41.355Z,6.543
2023-02-20T07:22:40.922Z,6.593
2023-02-20T07:23:41.482Z,6.596
2023-02-20T07:24:41.130Z,6.572
2023-02-20T07:25:40.784Z,6.580
2023-02-20T07:26:41.400Z,6.559
2023-02-20T07:27:41.189Z,6.607
2023-02-20T07:28:40.935Z,6.612
2023-02-20T07:29:41.667Z,6.663
2023-02-20T07:30:41.534Z,6.687
2023-02-20T07:31:41.386Z,6.676
2023-02-20T07:32:41.028Z,6.735
2023-02-20T07:33:40.651Z,6.826
2023-02-20T07:34:44.590Z,6.836
2023-02-20T07:36:43.028Z,6.876
2023-02-20T07:37:42.680Z,6.941
2023-02-20T07:38:43.406Z,6.917
2023-02-20T07:39:43.291Z,6.893
2023-02-20T07:40:42.932Z,6.866
2023-02-20T07:41:43.536Z,6.812
2023-02-20T07:42:43.172Z,6.911
2023-02-20T07:43:42.811Z,6.962
2023-02-20T07:44:43.419Z,6.975
2023-02-20T07:45:43.109Z,7.005
2023-02-20T07:46:42.804Z,7.087
2023-02-20T07:47:43.485Z,7.146
2023-02-20T07:48:43.097Z,7.162
2023-02-20T07:49:42.733Z,7.141
2023-02-20T07:50:43.437Z,7.293
2023-02-20T07:51:43.929Z,7.333
2023-02-20T07:52:43.581Z,7.509
2023-02-20T07:53:43.280Z,7.632
2023-02-20T07:54:42.873Z,7.840
2023-02-20T07:55:43.518Z,7.958
2023-02-20T07:56:43.338Z,8.132
2023-02-20T07:57:43.016Z,8.132
2023-02-20T07:58:42.687Z,8.086
2023-02-20T07:59:43.429Z,8.148
2023-02-20T08:00:43.108Z,8.041
2023-02-20T08:01:42.883Z,8.254
2023-02-20T08:02:43.591Z,8.214
2023-02-20T08:03:43.267Z,8.046
2023-02-20T08:04:42.848Z,8.049
2023-02-20T08:05:49.320Z,7.929
2023-02-20T08:06:43.336Z,8.129
2023-02-20T08:07:43.281Z,8.129
2023-02-20T08:08:42.868Z,8.278
2023-02-20T08:09:42.793Z,8.396
2023-02-20T08:10:43.480Z,8.457
2023-02-20T08:11:42.915Z,8.631
2023-02-20T08:12:43.682Z,8.535
2023-02-20T08:13:43.382Z,8.369
2023-02-20T08:14:42.996Z,8.433
2023-02-20T08:15:43.604Z,8.476
2023-02-20T08:16:43.495Z,8.516
2023-02-20T08:17:47.874Z,8.457
2023-02-20T08:19:49.937Z,8.300
2023-02-20T08:20:49.686Z,8.073
2023-02-20T08:21:50.557Z,8.051
2023-02-20T08:22:55.188Z,8.041
2023-02-20T08:23:49.828Z,7.995
2023-02-20T08:24:50.613Z,7.897
2023-02-20T08:25:50.428Z,7.766
2023-02-20T08:26:49.785Z,7.795
2023-02-20T08:27:50.659Z,7.798
2023-02-20T08:28:50.597Z,7.739
2023-02-20T08:29:50.504Z,7.707
2023-02-20T08:30:50.512Z,7.707
2023-02-20T08:31:51.015Z,7.667
2023-02-20T08:32:50.024Z,7.696
2023-02-20T08:33:50.041Z,7.792
2023-02-20T08:34:50.149Z,7.846
2023-02-20T08:35:50.237Z,7.979
2023-02-20T08:36:49.723Z,8.108
2023-02-20T08:37:50.447Z,8.142
2023-02-20T08:38:50.159Z,8.201
2023-02-20T08:39:49.884Z,8.268
2023-02-20T08:40:50.556Z,8.345
2023-02-20T08:41:50.399Z,8.543
2023-02-20T08:42:50.077Z,8.666
2023-02-20T08:43:49.799Z,8.796
2023-02-20T08:44:49.711Z,8.623
2023-02-20T08:45:50.413Z,8.754
2023-02-20T08:46:50.356Z,8.783
2023-02-20T08:47:49.928Z,8.716
2023-02-20T08:48:50.156Z,8.796
2023-02-20T08:49:49.885Z,8.706
2023-02-20T08:50:50.576Z,8.727
2023-02-20T08:51:50.429Z,8.911
2023-02-20T08:52:49.969Z,8.887
2023-02-20T08:53:50.606Z,8.898
2023-02-20T08:54:50.289Z,8.839
2023-02-20T08:55:49.983Z,8.898
2023-02-20T08:56:49.936Z,8.770
2023-02-20T08:57:50.773Z,8.650
2023-02-20T08:58:50.444Z,8.788
2023-02-20T08:59:50.239Z,8.925
2023-02-20T09:00:52.063Z,9.141
2023-02-20T09:01:50.002Z,9.146
2023-02-20T09:02:49.724Z,9.226
2023-02-20T09:03:50.471Z,9.250
2023-02-20T09:04:50.116Z,9.104
2023-02-20T09:05:49.772Z,9.293
2023-02-20T09:06:50.489Z,9.168
2023-02-20T09:07:50.325Z,9.325
2023-02-20T09:08:49.756Z,9.400
2023-02-20T09:09:50.183Z,9.282
2023-02-20T09:10:49.935Z,9.234
2023-02-20T09:11:50.460Z,9.253
2023-02-20T09:12:50.507Z,9.288
2023-02-20T09:13:50.485Z,9.138
2023-02-20T09:14:50.316Z,9.144
2023-02-20T09:15:50.222Z,9.112
2023-02-20T09:16:49.997Z,9.352
2023-02-20T09:17:49.692Z,9.328
2023-02-20T09:18:50.470Z,9.216
2023-02-20T09:19:50.256Z,9.293
2023-02-20T09:20:49.952Z,9.355
2023-02-20T09:21:49.769Z,9.216
2023-02-20T09:22:50.434Z,9.285
2023-02-20T09:23:50.324Z,9.250
2023-02-20T09:24:50.077Z,9.413
2023-02-20T09:25:49.775Z,9.421
2023-02-20T09:26:50.514Z,9.253
2023-02-20T09:27:50.709Z,9.405
2023-02-20T09:28:50.404Z,9.405
2023-02-20T09:29:50.212Z,9.411
2023-02-20T09:30:50.132Z,9.395
2023-02-20T09:31:50.033Z,9.520
2023-02-20T09:32:50.338Z,9.582
2023-02-20T09:33:51.501Z,9.731
2023-02-20T09:34:50.352Z,9.774
2023-02-20T09:35:50.033Z,9.945
2023-02-20T09:36:49.737Z,10.046
2023-02-20T09:37:50.427Z,10.027
2023-02-20T09:38:50.097Z,10.156
2023-02-20T09:39:49.790Z,9.987
2023-02-20T09:40:50.432Z,9.910
2023-02-20T09:41:50.140Z,9.883
2023-02-20T09:42:49.769Z,9.937
2023-02-20T09:43:50.521Z,9.950
2023-02-20T09:44:50.178Z,9.926
2023-02-20T09:45:49.797Z,10.073
2023-02-20T09:46:49.720Z,10.241
2023-02-20T09:47:50.298Z,10.452
2023-02-20T09:48:49.893Z,10.244
2023-02-20T09:49:50.660Z,10.196
2023-02-20T09:50:50.414Z,10.153
2023-02-20T09:51:50.060Z,10.359
2023-02-20T09:52:49.732Z,10.212
2023-02-20T09:53:50.463Z,10.367
2023-02-20T09:54:50.317Z,10.618
2023-02-20T09:55:50.028Z,10.863
2023-02-20T09:56:49.697Z,10.602
2023-02-20T09:57:50.389Z,10.487
2023-02-20T09:58:50.043Z,10.230
2023-02-20T09:59:49.659Z,10.110
2023-02-20T10:00:50.245Z,10.156
2023-02-20T10:01:49.916Z,10.161
2023-02-20T10:02:49.950Z,10.060
2023-02-20T10:03:49.886Z,9.961
2023-02-20T10:05:00.649Z,10.065
2023-02-20T10:06:49.832Z,10.548
2023-02-20T10:07:50.650Z,10.679
2023-02-20T10:08:50.345Z,10.415
2023-02-20T10:09:49.989Z,10.238
2023-02-20T10:10:49.699Z,10.335
2023-02-20T10:11:50.316Z,10.415
2023-02-20T10:12:50.013Z,10.252
2023-02-20T10:13:49.720Z,10.212
2023-02-20T10:14:50.403Z,10.367
2023-02-20T10:15:50.232Z,10.329
2023-02-20T10:16:49.918Z,10.399
2023-02-20T10:17:50.334Z,10.329
2023-02-20T10:18:50.000Z,10.476
2023-02-20T10:19:50.624Z,10.679
2023-02-20T10:20:49.734Z,10.367
2023-02-20T10:21:50.552Z,10.380
2023-02-20T10:22:50.230Z,10.407
2023-02-20T10:24:03.682Z,10.594
2023-02-20T10:24:50.329Z,10.431
2023-02-20T10:25:50.101Z,10.204
2023-02-20T10:26:49.918Z,10.292
2023-02-20T10:27:50.540Z,10.391
2023-02-20T10:28:50.361Z,10.388
2023-02-20T10:29:50.251Z,10.591
2023-02-20T10:30:50.156Z,10.521
2023-02-20T10:31:50.170Z,10.356
2023-02-20T10:32:50.060Z,10.348
2023-02-20T10:33:49.782Z,10.206
2023-02-20T10:34:50.425Z,10.377
2023-02-20T10:35:50.104Z,10.319
2023-02-20T10:36:49.819Z,10.174
2023-02-20T10:37:55.445Z,10.265
2023-02-20T10:38:50.111Z,10.156
2023-02-20T10:39:49.916Z,10.011
2023-02-20T10:40:50.555Z,9.971
2023-02-20T10:41:50.341Z,10.011
2023-02-20T10:42:50.098Z,9.985
2023-02-20T10:43:49.777Z,10.134
2023-02-20T10:44:55.417Z,10.084
2023-02-20T10:45:50.154Z,10.246
2023-02-20T10:46:55.060Z,10.201
2023-02-20T10:47:49.937Z,10.492
2023-02-20T10:48:49.735Z,10.708
2023-02-20T10:49:50.400Z,10.746
2023-02-20T10:50:50.168Z,10.735
2023-02-20T10:51:49.951Z,10.409
2023-02-20T10:52:52.441Z,10.188
2023-02-20T10:53:50.195Z,10.035
2023-02-20T10:54:50.625Z,10.084
2023-02-20T10:55:50.176Z,10.137
2023-02-20T10:56:49.879Z,10.148
2023-02-20T10:57:50.497Z,10.276
2023-02-20T10:58:50.204Z,10.316
2023-02-20T10:59:52.152Z,10.305
2023-02-20T11:00:50.120Z,10.335
2023-02-20T11:01:50.363Z,10.300
2023-02-20T11:02:50.344Z,10.391
2023-02-20T11:03:49.989Z,10.391
2023-02-20T11:04:49.896Z,10.596
2023-02-20T11:05:52.055Z,10.465
2023-02-20T11:06:50.235Z,10.452
2023-02-20T11:07:49.869Z,10.519
2023-02-20T11:08:50.558Z,10.351
2023-02-20T11:09:50.238Z,10.500
2023-02-20T11:10:49.981Z,10.543
2023-02-20T11:11:50.641Z,10.596
2023-02-20T11:12:50.411Z,10.620
2023-02-20T11:13:50.275Z,10.821
2023-02-20T11:14:54.850Z,10.858
2023-02-20T11:15:50.724Z,10.927
2023-02-20T11:16:49.838Z,11.237
2023-02-20T11:17:49.969Z,11.168
2023-02-20T11:18:50.680Z,11.400
2023-02-20T11:19:50.276Z,11.331
2023-02-20T11:20:50.004Z,11.472
2023-02-20T11:21:49.699Z,11.218
2023-02-20T11:22:50.431Z,11.277
2023-02-20T11:23:50.104Z,11.405
2023-02-20T11:24:49.753Z,11.173
2023-02-20T11:25:50.505Z,11.320
2023-02-20T11:26:50.196Z,11.707
2023-02-20T11:27:50.204Z,11.544
2023-02-20T11:28:49.867Z,11.761
2023-02-20T11:29:50.856Z,11.771
2023-02-20T11:30:50.716Z,11.707
2023-02-20T11:31:50.206Z,11.707
2023-02-20T11:32:50.184Z,11.667
2023-02-20T11:33:49.830Z,11.830
2023-02-20T11:34:50.544Z,11.558
2023-02-20T11:35:50.258Z,11.680
2023-02-20T11:36:50.141Z,11.520
2023-02-20T11:37:55.797Z,11.467
2023-02-20T11:38:49.676Z,11.464
2023-02-20T11:39:50.245Z,11.453
2023-02-20T11:40:49.906Z,11.419
2023-02-20T11:41:50.639Z,11.747
2023-02-20T11:42:50.406Z,11.950
2023-02-20T11:44:01.092Z,11.987
2023-02-20T11:44:50.625Z,12.028
2023-02-20T11:45:50.184Z,12.105
2023-02-20T11:46:49.897Z,11.921
2023-02-20T11:47:50.537Z,12.276
2023-02-20T11:48:50.162Z,12.070
2023-02-20T11:49:49.888Z,11.921
2023-02-20T11:51:50.725Z,11.798
2023-02-20T11:52:51.472Z,12.060
2023-02-20T11:53:51.084Z,11.993
2023-02-20T11:54:50.720Z,12.108
2023-02-20T11:55:59.630Z,12.086
2023-02-20T11:56:50.668Z,12.049
2023-02-20T11:57:51.373Z,12.129
2023-02-20T11:58:51.074Z,12.033
2023-02-20T11:59:50.648Z,12.276
2023-02-20T12:00:51.368Z,12.287
2023-02-20T12:02:00.486Z,12.684
2023-02-20T12:02:51.576Z,12.623
2023-02-20T12:03:51.379Z,12.319
2023-02-20T12:04:51.158Z,12.180
2023-02-20T12:05:51.074Z,11.974
2023-02-20T12:06:50.789Z,12.196
2023-02-20T12:07:51.625Z,12.412
2023-02-20T12:08:51.328Z,12.628
2023-02-20T12:09:50.948Z,12.572
2023-02-20T12:10:50.652Z,12.214
2023-02-20T12:11:51.357Z,12.230
2023-02-20T12:12:51.321Z,12.166
2023-02-20T12:13:51.025Z,12.297
2023-02-20T12:14:50.627Z,12.230
2023-02-20T12:15:51.276Z,12.423
2023-02-20T12:16:51.569Z,12.514
2023-02-20T12:17:51.197Z,12.556
2023-02-20T12:18:50.785Z,12.749
2023-02-20T12:19:51.396Z,12.890
2023-02-20T12:20:51.080Z,12.837
2023-02-20T12:21:50.760Z,12.978
2023-02-20T12:22:51.432Z,13.013
2023-02-20T12:23:51.089Z,12.751
2023-02-20T12:24:50.748Z,12.762
2023-02-20T12:25:51.360Z,12.700
2023-02-20T12:26:53.197Z,12.724
2023-02-20T12:27:50.828Z,12.695
2023-02-20T12:28:51.432Z,12.821
2023-02-20T12:29:51.168Z,13.074
2023-02-20T12:30:51.004Z,13.005
2023-02-20T12:31:50.990Z,12.866
2023-02-20T12:32:51.341Z,13.122
2023-02-20T12:33:51.087Z,12.895
2023-02-20T12:34:50.706Z,13.170
2023-02-20T12:35:51.433Z,12.941
2023-02-20T12:36:51.357Z,12.978
2023-02-20T12:37:51.048Z,12.925
2023-02-20T12:38:51.653Z,12.839
2023-02-20T12:39:51.185Z,12.789
2023-02-20T12:40:50.909Z,12.751
2023-02-20T12:41:51.582Z,12.871
2023-02-20T12:42:50.676Z,12.927
2023-02-20T12:43:51.333Z,12.698
2023-02-20T12:44:51.350Z,12.821
2023-02-20T12:45:50.957Z,12.871
2023-02-20T12:46:51.652Z,12.714
2023-02-20T12:47:51.615Z,12.610
2023-02-20T12:48:51.245Z,12.452
2023-02-20T12:49:50.944Z,12.359
2023-02-20T12:50:51.172Z,12.738
2023-02-20T12:51:50.851Z,12.727